sensor_id;sensor_type;location;lat;lon;timestamp;P1;durP1;ratioP1;P2;durP2;ratioP2
67675;SDS011;54456;48.436;10.028;2023-06-10T03:15:48;13.95;;;7.18;;
67675;SDS011;54456;48.436;10.028;2023-06-10T03:17:18;14.98;;;7.70;;
67675;SDS011;54456;48.436;10.028;2023-06-10T03:18:50;14.90;;;7.55;;
67675;SDS011;54456;48.436;10.028;2023-06-10T03:20:20;15.65;;;7.90;;
67675;SDS011;54456;48.436;10.028;2023-06-10T03:21:57;15.05;;;7.35;;
67675;SDS011;54456;48.436;10.028;2023-06-10T03:23:30;16.10;;;7.78;;
67675;SDS011;54456;48.436;10.028;2023-06-10T03:25:00;15.07;;;7.35;;
67675;SDS011;54456;48.436;10.028;2023-06-10T03:26:30;16.00;;;7.75;;
67675;SDS011;54456;48.436;10.028;2023-06-10T03:28:01;14.17;;;7.20;;
67675;SDS011;54456;48.436;10.028;2023-06-10T03:29:31;16.27;;;8.35;;
67675;SDS011;54456;48.436;10.028;2023-06-10T03:31:02;14.98;;;7.72;;
67675;SDS011;54456;48.436;10.028;2023-06-10T03:32:32;15.40;;;7.50;;
67675;SDS011;54456;48.436;10.028;2023-06-10T03:34:05;15.80;;;7.57;;
67675;SDS011;54456;48.436;10.028;2023-06-10T03:35:41;17.05;;;8.27;;
67675;SDS011;54456;48.436;10.028;2023-06-10T03:37:12;15.40;;;7.45;;
67675;SDS011;54456;48.436;10.028;2023-06-10T03:38:48;16.55;;;8.68;;
67675;SDS011;54456;48.436;10.028;2023-06-10T03:40:25;16.88;;;7.82;;
67675;SDS011;54456;48.436;10.028;2023-06-10T03:42:01;16.98;;;8.05;;
67675;SDS011;54456;48.436;10.028;2023-06-10T03:43:37;16.33;;;8.95;;
67675;SDS011;54456;48.436;10.028;2023-06-10T03:45:13;15.77;;;8.02;;
67675;SDS011;54456;48.436;10.028;2023-06-10T03:46:43;15.18;;;7.93;;
67675;SDS011;54456;48.436;10.028;2023-06-10T03:48:14;15.80;;;8.30;;
67675;SDS011;54456;48.436;10.028;2023-06-10T03:49:44;16.35;;;8.43;;
67675;SDS011;54456;48.436;10.028;2023-06-10T03:51:15;17.05;;;8.75;;
67675;SDS011;54456;48.436;10.028;2023-06-10T03:52:45;16.80;;;8.38;;
67675;SDS011;54456;48.436;10.028;2023-06-10T03:54:16;16.13;;;8.23;;
67675;SDS011;54456;48.436;10.028;2023-06-10T03:55:47;15.23;;;8.00;;
67675;SDS011;54456;48.436;10.028;2023-06-10T03:57:18;16.35;;;8.52;;
67675;SDS011;54456;48.436;10.028;2023-06-10T03:58:48;16.30;;;8.67;;
67675;SDS011;54456;48.436;10.028;2023-06-10T04:00:18;17.53;;;8.70;;
67675;SDS011;54456;48.436;10.028;2023-06-10T04:01:51;15.77;;;8.45;;
67675;SDS011;54456;48.436;10.028;2023-06-10T04:03:21;16.15;;;8.57;;
67675;SDS011;54456;48.436;10.028;2023-06-10T04:04:52;17.00;;;8.65;;
67675;SDS011;54456;48.436;10.028;2023-06-10T04:06:23;16.67;;;8.57;;
67675;SDS011;54456;48.436;10.028;2023-06-10T04:07:55;16.15;;;8.90;;
67675;SDS011;54456;48.436;10.028;2023-06-10T04:09:26;17.15;;;8.52;;
67675;SDS011;54456;48.436;10.028;2023-06-10T04:10:57;14.87;;;8.10;;
67675;SDS011;54456;48.436;10.028;2023-06-10T04:12:27;18.00;;;8.40;;
67675;SDS011;54456;48.436;10.028;2023-06-10T04:13:57;16.10;;;8.27;;
67675;SDS011;54456;48.436;10.028;2023-06-10T04:15:28;15.47;;;8.13;;
67675;SDS011;54456;48.436;10.028;2023-06-10T04:16:58;17.15;;;8.32;;
67675;SDS011;54456;48.436;10.028;2023-06-10T04:18:29;18.10;;;9.13;;
67675;SDS011;54456;48.436;10.028;2023-06-10T04:19:59;16.30;;;8.13;;
67675;SDS011;54456;48.436;10.028;2023-06-10T04:21:30;17.10;;;8.27;;
67675;SDS011;54456;48.436;10.028;2023-06-10T04:23:01;14.80;;;8.03;;
67675;SDS011;54456;48.436;10.028;2023-06-10T04:24:31;17.20;;;8.20;;
67675;SDS011;54456;48.436;10.028;2023-06-10T04:26:02;15.90;;;8.18;;
67675;SDS011;54456;48.436;10.028;2023-06-10T04:27:32;17.08;;;8.18;;
67675;SDS011;54456;48.436;10.028;2023-06-10T04:29:03;13.80;;;7.35;;
67675;SDS011;54456;48.436;10.028;2023-06-10T04:30:33;16.63;;;8.37;;
67675;SDS011;54456;48.436;10.028;2023-06-10T04:32:03;15.43;;;7.83;;
67675;SDS011;54456;48.436;10.028;2023-06-10T04:33:36;15.85;;;7.78;;
67675;SDS011;54456;48.436;10.028;2023-06-10T04:35:06;17.17;;;7.67;;
67675;SDS011;54456;48.436;10.028;2023-06-10T04:36:37;15.45;;;7.80;;
67675;SDS011;54456;48.436;10.028;2023-06-10T04:38:08;14.60;;;7.50;;
67675;SDS011;54456;48.436;10.028;2023-06-10T04:39:38;14.43;;;7.30;;
67675;SDS011;54456;48.436;10.028;2023-06-10T04:41:08;13.67;;;7.23;;
67675;SDS011;54456;48.436;10.028;2023-06-10T04:42:38;14.63;;;7.93;;
67675;SDS011;54456;48.436;10.028;2023-06-10T04:44:09;14.45;;;7.68;;
67675;SDS011;54456;48.436;10.028;2023-06-10T04:45:40;15.15;;;7.43;;
67675;SDS011;54456;48.436;10.028;2023-06-10T04:47:14;14.13;;;7.20;;
67675;SDS011;54456;48.436;10.028;2023-06-10T04:48:47;14.70;;;7.30;;
67675;SDS011;54456;48.436;10.028;2023-06-10T04:50:17;14.45;;;7.18;;
67675;SDS011;54456;48.436;10.028;2023-06-10T04:51:48;13.35;;;7.00;;
67675;SDS011;54456;48.436;10.028;2023-06-10T04:53:18;14.35;;;7.50;;
67675;SDS011;54456;48.436;10.028;2023-06-10T04:54:48;16.35;;;7.47;;
67675;SDS011;54456;48.436;10.028;2023-06-10T04:56:19;14.65;;;7.13;;
67675;SDS011;54456;48.436;10.028;2023-06-10T04:57:50;14.05;;;6.88;;
67675;SDS011;54456;48.436;10.028;2023-06-10T04:59:21;15.02;;;6.80;;
67675;SDS011;54456;48.436;10.028;2023-06-10T05:00:51;14.57;;;7.30;;
67675;SDS011;54456;48.436;10.028;2023-06-10T05:02:21;13.33;;;6.77;;
67675;SDS011;54456;48.436;10.028;2023-06-10T05:03:52;14.60;;;6.97;;
67675;SDS011;54456;48.436;10.028;2023-06-10T05:05:22;14.48;;;7.25;;
67675;SDS011;54456;48.436;10.028;2023-06-10T05:06:53;13.47;;;6.53;;
67675;SDS011;54456;48.436;10.028;2023-06-10T05:08:23;14.43;;;7.00;;
67675;SDS011;54456;48.436;10.028;2023-06-10T05:09:53;13.63;;;7.10;;
67675;SDS011;54456;48.436;10.028;2023-06-10T05:11:23;12.63;;;6.63;;
67675;SDS011;54456;48.436;10.028;2023-06-10T05:12:54;13.90;;;7.22;;
67675;SDS011;54456;48.436;10.028;2023-06-10T05:14:24;13.37;;;6.67;;
67675;SDS011;54456;48.436;10.028;2023-06-10T05:15:54;12.98;;;6.78;;
67675;SDS011;54456;48.436;10.028;2023-06-10T05:17:25;14.73;;;7.22;;
67675;SDS011;54456;48.436;10.028;2023-06-10T05:18:55;13.15;;;6.90;;
67675;SDS011;54456;48.436;10.028;2023-06-10T05:20:26;13.57;;;7.03;;
67675;SDS011;54456;48.436;10.028;2023-06-10T05:21:56;14.85;;;7.20;;
67675;SDS011;54456;48.436;10.028;2023-06-10T05:23:27;14.25;;;7.07;;
67675;SDS011;54456;48.436;10.028;2023-06-10T05:24:57;14.25;;;7.35;;
67675;SDS011;54456;48.436;10.028;2023-06-10T05:26:28;13.73;;;7.13;;
67675;SDS011;54456;48.436;10.028;2023-06-10T05:27:59;12.98;;;7.00;;
67675;SDS011;54456;48.436;10.028;2023-06-10T05:29:29;13.80;;;7.07;;
67675;SDS011;54456;48.436;10.028;2023-06-10T05:30:59;14.40;;;7.10;;
67675;SDS011;54456;48.436;10.028;2023-06-10T05:32:30;13.70;;;7.18;;
67675;SDS011;54456;48.436;10.028;2023-06-10T05:34:00;13.90;;;6.90;;
67675;SDS011;54456;48.436;10.028;2023-06-10T05:35:31;13.80;;;7.20;;
67675;SDS011;54456;48.436;10.028;2023-06-10T05:37:01;13.20;;;6.88;;
67675;SDS011;54456;48.436;10.028;2023-06-10T05:38:32;14.00;;;7.47;;
67675;SDS011;54456;48.436;10.028;2023-06-10T05:40:02;13.53;;;7.27;;
67675;SDS011;54456;48.436;10.028;2023-06-10T05:41:34;13.95;;;6.90;;
67675;SDS011;54456;48.436;10.028;2023-06-10T05:43:04;14.35;;;7.07;;
67675;SDS011;54456;48.436;10.028;2023-06-10T05:44:35;13.53;;;7.33;;
67675;SDS011;54456;48.436;10.028;2023-06-10T05:46:05;13.70;;;7.33;;
67675;SDS011;54456;48.436;10.028;2023-06-10T05:47:35;12.98;;;6.93;;
67675;SDS011;54456;48.436;10.028;2023-06-10T05:49:06;14.13;;;7.07;;
67675;SDS011;54456;48.436;10.028;2023-06-10T05:50:36;13.38;;;7.32;;
67675;SDS011;54456;48.436;10.028;2023-06-10T05:52:08;13.90;;;7.25;;
67675;SDS011;54456;48.436;10.028;2023-06-10T05:53:39;13.60;;;7.23;;
67675;SDS011;54456;48.436;10.028;2023-06-10T05:55:09;13.82;;;7.05;;
67675;SDS011;54456;48.436;10.028;2023-06-10T05:56:40;13.05;;;7.43;;
67675;SDS011;54456;48.436;10.028;2023-06-10T05:58:11;14.25;;;7.13;;
67675;SDS011;54456;48.436;10.028;2023-06-10T05:59:42;13.25;;;7.30;;
67675;SDS011;54456;48.436;10.028;2023-06-10T06:01:12;13.95;;;6.78;;
67675;SDS011;54456;48.436;10.028;2023-06-10T06:02:43;14.63;;;7.82;;
67675;SDS011;54456;48.436;10.028;2023-06-10T06:04:13;13.90;;;7.45;;
67675;SDS011;54456;48.436;10.028;2023-06-10T06:05:43;12.93;;;6.60;;
67675;SDS011;54456;48.436;10.028;2023-06-10T06:07:14;12.70;;;6.50;;
67675;SDS011;54456;48.436;10.028;2023-06-10T06:08:44;12.10;;;6.40;;
67675;SDS011;54456;48.436;10.028;2023-06-10T06:10:16;14.47;;;6.90;;
67675;SDS011;54456;48.436;10.028;2023-06-10T06:11:47;13.18;;;6.78;;
67675;SDS011;54456;48.436;10.028;2023-06-10T06:13:17;13.95;;;7.28;;
67675;SDS011;54456;48.436;10.028;2023-06-10T06:14:48;12.35;;;6.68;;
67675;SDS011;54456;48.436;10.028;2023-06-10T06:16:19;12.18;;;6.80;;
67675;SDS011;54456;48.436;10.028;2023-06-10T06:17:49;12.77;;;6.50;;
67675;SDS011;54456;48.436;10.028;2023-06-10T06:19:22;13.52;;;7.05;;
67675;SDS011;54456;48.436;10.028;2023-06-10T06:20:52;12.93;;;6.82;;
67675;SDS011;54456;48.436;10.028;2023-06-10T06:22:23;13.43;;;6.90;;
67675;SDS011;54456;48.436;10.028;2023-06-10T06:23:53;12.70;;;6.60;;
67675;SDS011;54456;48.436;10.028;2023-06-10T06:25:24;13.48;;;6.80;;
67675;SDS011;54456;48.436;10.028;2023-06-10T06:26:54;12.27;;;6.53;;
67675;SDS011;54456;48.436;10.028;2023-06-10T06:28:24;13.45;;;6.63;;
67675;SDS011;54456;48.436;10.028;2023-06-10T06:29:59;13.25;;;7.03;;
67675;SDS011;54456;48.436;10.028;2023-06-10T06:31:30;11.77;;;6.75;;
67675;SDS011;54456;48.436;10.028;2023-06-10T06:33:00;14.00;;;6.68;;
67675;SDS011;54456;48.436;10.028;2023-06-10T06:34:33;11.32;;;6.53;;
67675;SDS011;54456;48.436;10.028;2023-06-10T06:36:04;12.13;;;6.70;;
67675;SDS011;54456;48.436;10.028;2023-06-10T06:37:35;13.18;;;7.03;;
67675;SDS011;54456;48.436;10.028;2023-06-10T06:39:05;12.48;;;6.63;;
67675;SDS011;54456;48.436;10.028;2023-06-10T06:40:36;12.10;;;6.60;;
67675;SDS011;54456;48.436;10.028;2023-06-10T06:42:06;12.60;;;6.90;;
67675;SDS011;54456;48.436;10.028;2023-06-10T06:43:37;13.25;;;7.25;;
67675;SDS011;54456;48.436;10.028;2023-06-10T06:45:07;13.90;;;7.30;;
67675;SDS011;54456;48.436;10.028;2023-06-10T06:46:38;14.15;;;7.15;;
67675;SDS011;54456;48.436;10.028;2023-06-10T06:48:08;12.47;;;6.60;;
67675;SDS011;54456;48.436;10.028;2023-06-10T06:49:38;12.38;;;6.75;;
67675;SDS011;54456;48.436;10.028;2023-06-10T06:51:09;13.73;;;7.10;;
67675;SDS011;54456;48.436;10.028;2023-06-10T06:52:39;15.95;;;7.05;;
67675;SDS011;54456;48.436;10.028;2023-06-10T06:54:09;13.80;;;6.97;;
67675;SDS011;54456;48.436;10.028;2023-06-10T06:55:41;12.38;;;6.80;;
67675;SDS011;54456;48.436;10.028;2023-06-10T06:57:11;13.02;;;6.75;;
67675;SDS011;54456;48.436;10.028;2023-06-10T06:58:41;13.07;;;7.10;;
67675;SDS011;54456;48.436;10.028;2023-06-10T07:00:12;13.85;;;7.43;;
67675;SDS011;54456;48.436;10.028;2023-06-10T07:01:43;14.18;;;7.35;;
67675;SDS011;54456;48.436;10.028;2023-06-10T07:03:13;13.23;;;7.27;;
67675;SDS011;54456;48.436;10.028;2023-06-10T07:04:43;14.03;;;6.90;;
67675;SDS011;54456;48.436;10.028;2023-06-10T07:06:14;13.45;;;7.57;;
67675;SDS011;54456;48.436;10.028;2023-06-10T07:07:44;13.38;;;7.43;;
67675;SDS011;54456;48.436;10.028;2023-06-10T07:09:14;14.38;;;7.78;;
67675;SDS011;54456;48.436;10.028;2023-06-10T07:10:45;13.88;;;7.65;;
67675;SDS011;54456;48.436;10.028;2023-06-10T07:12:15;13.63;;;7.40;;
67675;SDS011;54456;48.436;10.028;2023-06-10T07:13:46;13.05;;;7.82;;
67675;SDS011;54456;48.436;10.028;2023-06-10T07:15:16;13.52;;;7.93;;
67675;SDS011;54456;48.436;10.028;2023-06-10T07:16:46;16.55;;;8.23;;
67675;SDS011;54456;48.436;10.028;2023-06-10T07:18:18;13.13;;;7.03;;
67675;SDS011;54456;48.436;10.028;2023-06-10T07:19:48;14.53;;;7.57;;
67675;SDS011;54456;48.436;10.028;2023-06-10T07:21:22;14.82;;;7.40;;
67675;SDS011;54456;48.436;10.028;2023-06-10T07:22:59;14.10;;;7.38;;
67675;SDS011;54456;48.436;10.028;2023-06-10T07:24:29;13.37;;;7.37;;
67675;SDS011;54456;48.436;10.028;2023-06-10T07:26:00;12.88;;;6.97;;
67675;SDS011;54456;48.436;10.028;2023-06-10T07:27:30;13.75;;;7.32;;
67675;SDS011;54456;48.436;10.028;2023-06-10T07:29:00;12.53;;;7.00;;
67675;SDS011;54456;48.436;10.028;2023-06-10T07:30:31;13.53;;;6.80;;
67675;SDS011;54456;48.436;10.028;2023-06-10T07:32:02;12.03;;;6.50;;
67675;SDS011;54456;48.436;10.028;2023-06-10T07:33:33;11.25;;;6.32;;
67675;SDS011;54456;48.436;10.028;2023-06-10T07:35:06;11.13;;;6.32;;
67675;SDS011;54456;48.436;10.028;2023-06-10T07:36:38;11.05;;;6.40;;
67675;SDS011;54456;48.436;10.028;2023-06-10T07:38:08;11.02;;;6.35;;
67675;SDS011;54456;48.436;10.028;2023-06-10T07:39:39;13.37;;;6.97;;
67675;SDS011;54456;48.436;10.028;2023-06-10T07:41:09;9.90;;;5.80;;
67675;SDS011;54456;48.436;10.028;2023-06-10T07:42:40;11.77;;;7.10;;
67675;SDS011;54456;48.436;10.028;2023-06-10T07:44:11;11.00;;;6.35;;
67675;SDS011;54456;48.436;10.028;2023-06-10T07:45:42;11.03;;;6.53;;
67675;SDS011;54456;48.436;10.028;2023-06-10T07:47:13;12.90;;;6.82;;
67675;SDS011;54456;48.436;10.028;2023-06-10T07:48:43;11.07;;;6.45;;
67675;SDS011;54456;48.436;10.028;2023-06-10T07:50:13;10.63;;;6.15;;
67675;SDS011;54456;48.436;10.028;2023-06-10T07:51:44;10.38;;;6.10;;
67675;SDS011;54456;48.436;10.028;2023-06-10T07:53:14;10.77;;;6.10;;
67675;SDS011;54456;48.436;10.028;2023-06-10T07:54:45;9.60;;;5.90;;
67675;SDS011;54456;48.436;10.028;2023-06-10T07:56:15;11.10;;;6.30;;
67675;SDS011;54456;48.436;10.028;2023-06-10T07:57:45;12.38;;;6.97;;
67675;SDS011;54456;48.436;10.028;2023-06-10T07:59:16;10.90;;;6.28;;
67675;SDS011;54456;48.436;10.028;2023-06-10T08:00:46;9.60;;;6.07;;
67675;SDS011;54456;48.436;10.028;2023-06-10T08:02:16;11.55;;;6.53;;
67675;SDS011;54456;48.436;10.028;2023-06-10T08:03:47;10.63;;;5.97;;
67675;SDS011;54456;48.436;10.028;2023-06-10T08:05:17;9.47;;;6.27;;
67675;SDS011;54456;48.436;10.028;2023-06-10T08:06:48;10.52;;;5.78;;
67675;SDS011;54456;48.436;10.028;2023-06-10T08:08:18;11.57;;;7.18;;
67675;SDS011;54456;48.436;10.028;2023-06-10T08:09:48;11.17;;;6.90;;
67675;SDS011;54456;48.436;10.028;2023-06-10T08:11:18;11.30;;;7.07;;
67675;SDS011;54456;48.436;10.028;2023-06-10T08:12:49;11.38;;;5.43;;
67675;SDS011;54456;48.436;10.028;2023-06-10T08:14:19;13.73;;;5.50;;
67675;SDS011;54456;48.436;10.028;2023-06-10T08:15:50;9.50;;;5.60;;
67675;SDS011;54456;48.436;10.028;2023-06-10T08:17:20;11.77;;;5.78;;
67675;SDS011;54456;48.436;10.028;2023-06-10T08:18:51;10.35;;;5.90;;
67675;SDS011;54456;48.436;10.028;2023-06-10T08:20:21;10.90;;;5.77;;
67675;SDS011;54456;48.436;10.028;2023-06-10T08:21:52;10.25;;;5.80;;
67675;SDS011;54456;48.436;10.028;2023-06-10T08:23:22;11.07;;;5.80;;
67675;SDS011;54456;48.436;10.028;2023-06-10T08:24:52;9.90;;;5.55;;
67675;SDS011;54456;48.436;10.028;2023-06-10T08:26:23;9.97;;;5.80;;
67675;SDS011;54456;48.436;10.028;2023-06-10T08:27:54;10.10;;;5.70;;
67675;SDS011;54456;48.436;10.028;2023-06-10T08:29:26;10.30;;;5.32;;
67675;SDS011;54456;48.436;10.028;2023-06-10T08:30:56;12.38;;;5.72;;
67675;SDS011;54456;48.436;10.028;2023-06-10T08:32:27;10.52;;;6.13;;
67675;SDS011;54456;48.436;10.028;2023-06-10T08:34:00;9.73;;;6.00;;
67675;SDS011;54456;48.436;10.028;2023-06-10T08:35:30;11.27;;;6.25;;
67675;SDS011;54456;48.436;10.028;2023-06-10T08:37:01;10.40;;;5.93;;
67675;SDS011;54456;48.436;10.028;2023-06-10T08:38:32;10.75;;;5.40;;
67675;SDS011;54456;48.436;10.028;2023-06-10T08:40:02;9.65;;;5.50;;
67675;SDS011;54456;48.436;10.028;2023-06-10T08:41:34;10.80;;;5.88;;
67675;SDS011;54456;48.436;10.028;2023-06-10T08:44:37;9.40;;;5.65;;
67675;SDS011;54456;48.436;10.028;2023-06-10T08:46:09;10.52;;;6.13;;
67675;SDS011;54456;48.436;10.028;2023-06-10T08:47:40;10.43;;;5.65;;
67675;SDS011;54456;48.436;10.028;2023-06-10T08:49:14;9.90;;;5.40;;
67675;SDS011;54456;48.436;10.028;2023-06-10T08:50:48;10.40;;;5.90;;
67675;SDS011;54456;48.436;10.028;2023-06-10T08:52:20;11.07;;;5.80;;
67675;SDS011;54456;48.436;10.028;2023-06-10T08:53:53;9.80;;;5.50;;
67675;SDS011;54456;48.436;10.028;2023-06-10T08:55:42;9.60;;;5.70;;
67675;SDS011;54456;48.436;10.028;2023-06-10T08:57:12;10.40;;;6.05;;
67675;SDS011;54456;48.436;10.028;2023-06-10T08:58:43;12.25;;;5.53;;
67675;SDS011;54456;48.436;10.028;2023-06-10T09:00:13;9.95;;;6.20;;
67675;SDS011;54456;48.436;10.028;2023-06-10T09:01:46;10.02;;;5.68;;
67675;SDS011;54456;48.436;10.028;2023-06-10T09:03:17;9.07;;;5.35;;
67675;SDS011;54456;48.436;10.028;2023-06-10T09:04:48;11.38;;;5.97;;
67675;SDS011;54456;48.436;10.028;2023-06-10T09:06:19;11.90;;;6.15;;
67675;SDS011;54456;48.436;10.028;2023-06-10T09:07:51;9.38;;;5.75;;
67675;SDS011;54456;48.436;10.028;2023-06-10T09:09:22;10.57;;;5.72;;
67675;SDS011;54456;48.436;10.028;2023-06-10T09:10:53;10.38;;;5.88;;
67675;SDS011;54456;48.436;10.028;2023-06-10T09:12:24;10.38;;;5.90;;
67675;SDS011;54456;48.436;10.028;2023-06-10T09:13:54;9.98;;;5.75;;
67675;SDS011;54456;48.436;10.028;2023-06-10T09:15:24;11.48;;;5.78;;
67675;SDS011;54456;48.436;10.028;2023-06-10T09:16:55;10.63;;;5.75;;
67675;SDS011;54456;48.436;10.028;2023-06-10T09:18:28;10.00;;;5.55;;
67675;SDS011;54456;48.436;10.028;2023-06-10T09:20:00;11.15;;;5.57;;
67675;SDS011;54456;48.436;10.028;2023-06-10T09:21:32;12.77;;;6.40;;
67675;SDS011;54456;48.436;10.028;2023-06-10T09:23:03;10.85;;;6.47;;
67675;SDS011;54456;48.436;10.028;2023-06-10T09:24:34;9.95;;;6.07;;
67675;SDS011;54456;48.436;10.028;2023-06-10T09:26:07;10.60;;;5.65;;
67675;SDS011;54456;48.436;10.028;2023-06-10T09:29:18;10.38;;;5.90;;
67675;SDS011;54456;48.436;10.028;2023-06-10T09:30:49;10.23;;;6.33;;
67675;SDS011;54456;48.436;10.028;2023-06-10T09:32:20;10.65;;;6.22;;
67675;SDS011;54456;48.436;10.028;2023-06-10T09:33:50;9.50;;;5.85;;
67675;SDS011;54456;48.436;10.028;2023-06-10T09:35:20;11.47;;;5.77;;
67675;SDS011;54456;48.436;10.028;2023-06-10T09:36:51;10.18;;;5.57;;
67675;SDS011;54456;48.436;10.028;2023-06-10T09:38:22;10.55;;;6.53;;
67675;SDS011;54456;48.436;10.028;2023-06-10T09:40:01;11.25;;;6.30;;
67675;SDS011;54456;48.436;10.028;2023-06-10T09:41:42;10.10;;;5.70;;
67675;SDS011;54456;48.436;10.028;2023-06-10T09:43:13;10.02;;;5.88;;
67675;SDS011;54456;48.436;10.028;2023-06-10T09:44:51;9.80;;;5.80;;
67675;SDS011;54456;48.436;10.028;2023-06-10T09:46:22;10.13;;;5.43;;
67675;SDS011;54456;48.436;10.028;2023-06-10T09:47:52;9.60;;;5.55;;
67675;SDS011;54456;48.436;10.028;2023-06-10T09:49:23;9.77;;;5.75;;
67675;SDS011;54456;48.436;10.028;2023-06-10T09:50:53;9.07;;;5.23;;
67675;SDS011;54456;48.436;10.028;2023-06-10T09:52:24;9.57;;;5.72;;
67675;SDS011;54456;48.436;10.028;2023-06-10T09:53:55;9.70;;;5.70;;
67675;SDS011;54456;48.436;10.028;2023-06-10T09:55:26;9.63;;;5.60;;
67675;SDS011;54456;48.436;10.028;2023-06-10T09:56:56;10.07;;;6.10;;
67675;SDS011;54456;48.436;10.028;2023-06-10T09:58:38;11.13;;;6.25;;
67675;SDS011;54456;48.436;10.028;2023-06-10T10:00:10;11.30;;;6.32;;
67675;SDS011;54456;48.436;10.028;2023-06-10T10:01:41;9.15;;;5.85;;
67675;SDS011;54456;48.436;10.028;2023-06-10T10:03:11;9.77;;;5.85;;
67675;SDS011;54456;48.436;10.028;2023-06-10T10:04:52;10.52;;;5.95;;
67675;SDS011;54456;48.436;10.028;2023-06-10T10:06:22;11.73;;;6.30;;
67675;SDS011;54456;48.436;10.028;2023-06-10T10:07:53;9.52;;;5.78;;
67675;SDS011;54456;48.436;10.028;2023-06-10T10:09:23;10.50;;;5.60;;
67675;SDS011;54456;48.436;10.028;2023-06-10T10:10:54;9.98;;;5.40;;
67675;SDS011;54456;48.436;10.028;2023-06-10T10:12:26;9.75;;;5.65;;
67675;SDS011;54456;48.436;10.028;2023-06-10T10:13:56;10.15;;;5.55;;
67675;SDS011;54456;48.436;10.028;2023-06-10T10:15:28;9.55;;;5.20;;
67675;SDS011;54456;48.436;10.028;2023-06-10T10:17:00;10.20;;;5.32;;
67675;SDS011;54456;48.436;10.028;2023-06-10T10:18:31;9.80;;;4.75;;
67675;SDS011;54456;48.436;10.028;2023-06-10T10:20:02;9.43;;;5.25;;
67675;SDS011;54456;48.436;10.028;2023-06-10T10:21:35;8.55;;;4.78;;
67675;SDS011;54456;48.436;10.028;2023-06-10T10:23:10;8.50;;;4.82;;
67675;SDS011;54456;48.436;10.028;2023-06-10T10:24:49;8.65;;;4.85;;
67675;SDS011;54456;48.436;10.028;2023-06-10T10:26:20;8.90;;;5.07;;
67675;SDS011;54456;48.436;10.028;2023-06-10T10:27:52;8.77;;;4.97;;
67675;SDS011;54456;48.436;10.028;2023-06-10T10:31:10;7.25;;;4.38;;
67675;SDS011;54456;48.436;10.028;2023-06-10T10:32:43;8.15;;;4.82;;
67675;SDS011;54456;48.436;10.028;2023-06-10T10:34:48;9.10;;;4.80;;
67675;SDS011;54456;48.436;10.028;2023-06-10T10:36:22;9.45;;;4.68;;
67675;SDS011;54456;48.436;10.028;2023-06-10T10:37:53;8.48;;;5.00;;
67675;SDS011;54456;48.436;10.028;2023-06-10T10:39:24;8.23;;;5.00;;
67675;SDS011;54456;48.436;10.028;2023-06-10T10:40:56;8.57;;;5.10;;
67675;SDS011;54456;48.436;10.028;2023-06-10T10:44:00;9.10;;;5.93;;
67675;SDS011;54456;48.436;10.028;2023-06-10T10:45:31;9.05;;;5.60;;
67675;SDS011;54456;48.436;10.028;2023-06-10T10:47:03;10.35;;;5.65;;
67675;SDS011;54456;48.436;10.028;2023-06-10T10:48:37;8.95;;;5.82;;
67675;SDS011;54456;48.436;10.028;2023-06-10T10:50:15;8.75;;;5.28;;
67675;SDS011;54456;48.436;10.028;2023-06-10T10:51:59;9.90;;;5.53;;
67675;SDS011;54456;48.436;10.028;2023-06-10T10:53:30;9.27;;;5.38;;
67675;SDS011;54456;48.436;10.028;2023-06-10T10:55:01;8.88;;;5.35;;
67675;SDS011;54456;48.436;10.028;2023-06-10T10:56:32;9.65;;;5.13;;
67675;SDS011;54456;48.436;10.028;2023-06-10T10:58:03;8.53;;;5.30;;
67675;SDS011;54456;48.436;10.028;2023-06-10T10:59:43;9.05;;;5.50;;
67675;SDS011;54456;48.436;10.028;2023-06-10T11:01:25;9.55;;;5.78;;
67675;SDS011;54456;48.436;10.028;2023-06-10T11:03:13;9.85;;;5.97;;
67675;SDS011;54456;48.436;10.028;2023-06-10T11:04:47;12.05;;;5.93;;
67675;SDS011;54456;48.436;10.028;2023-06-10T11:06:18;8.85;;;5.30;;
67675;SDS011;54456;48.436;10.028;2023-06-10T11:07:53;7.90;;;4.65;;
67675;SDS011;54456;48.436;10.028;2023-06-10T11:09:28;8.15;;;5.32;;
67675;SDS011;54456;48.436;10.028;2023-06-10T11:11:17;8.93;;;5.22;;
67675;SDS011;54456;48.436;10.028;2023-06-10T11:12:51;8.85;;;5.13;;
67675;SDS011;54456;48.436;10.028;2023-06-10T11:14:29;8.35;;;4.72;;
67675;SDS011;54456;48.436;10.028;2023-06-10T11:16:00;8.73;;;5.20;;
67675;SDS011;54456;48.436;10.028;2023-06-10T11:17:34;8.20;;;4.82;;
67675;SDS011;54456;48.436;10.028;2023-06-10T11:19:04;8.98;;;5.38;;
67675;SDS011;54456;48.436;10.028;2023-06-10T11:22:20;8.40;;;5.03;;
67675;SDS011;54456;48.436;10.028;2023-06-10T11:23:50;8.90;;;5.30;;
67675;SDS011;54456;48.436;10.028;2023-06-10T11:25:21;9.98;;;5.28;;
67675;SDS011;54456;48.436;10.028;2023-06-10T11:27:14;8.95;;;5.50;;
67675;SDS011;54456;48.436;10.028;2023-06-10T11:30:18;9.23;;;5.07;;
67675;SDS011;54456;48.436;10.028;2023-06-10T11:31:50;7.90;;;5.22;;
67675;SDS011;54456;48.436;10.028;2023-06-10T11:33:20;9.18;;;5.65;;
67675;SDS011;54456;48.436;10.028;2023-06-10T11:34:53;8.38;;;5.38;;
67675;SDS011;54456;48.436;10.028;2023-06-10T11:36:24;8.95;;;5.50;;
67675;SDS011;54456;48.436;10.028;2023-06-10T11:37:55;9.23;;;5.75;;
67675;SDS011;54456;48.436;10.028;2023-06-10T11:39:25;8.52;;;5.13;;
67675;SDS011;54456;48.436;10.028;2023-06-10T11:40:56;9.55;;;5.40;;
67675;SDS011;54456;48.436;10.028;2023-06-10T11:42:27;8.00;;;5.03;;
67675;SDS011;54456;48.436;10.028;2023-06-10T11:44:01;9.07;;;5.30;;
67675;SDS011;54456;48.436;10.028;2023-06-10T11:45:53;8.45;;;5.30;;
67675;SDS011;54456;48.436;10.028;2023-06-10T11:47:24;9.30;;;5.18;;
67675;SDS011;54456;48.436;10.028;2023-06-10T11:48:59;9.75;;;5.45;;
67675;SDS011;54456;48.436;10.028;2023-06-10T11:50:33;10.10;;;5.85;;
67675;SDS011;54456;48.436;10.028;2023-06-10T11:52:04;10.00;;;5.72;;
67675;SDS011;54456;48.436;10.028;2023-06-10T11:53:35;8.80;;;5.35;;
67675;SDS011;54456;48.436;10.028;2023-06-10T11:55:05;8.97;;;5.60;;
67675;SDS011;54456;48.436;10.028;2023-06-10T11:56:36;8.98;;;5.85;;
67675;SDS011;54456;48.436;10.028;2023-06-10T11:58:16;10.63;;;6.00;;
67675;SDS011;54456;48.436;10.028;2023-06-10T11:59:50;10.50;;;5.65;;
67675;SDS011;54456;48.436;10.028;2023-06-10T12:01:24;8.05;;;5.28;;
67675;SDS011;54456;48.436;10.028;2023-06-10T12:02:58;8.52;;;5.57;;
67675;SDS011;54456;48.436;10.028;2023-06-10T12:04:28;10.48;;;5.60;;
67675;SDS011;54456;48.436;10.028;2023-06-10T12:05:59;8.82;;;5.85;;
67675;SDS011;54456;48.436;10.028;2023-06-10T12:07:31;9.82;;;5.78;;
67675;SDS011;54456;48.436;10.028;2023-06-10T12:09:01;8.77;;;5.38;;
67675;SDS011;54456;48.436;10.028;2023-06-10T12:10:32;9.30;;;5.30;;
67675;SDS011;54456;48.436;10.028;2023-06-10T12:12:03;9.65;;;5.72;;
67675;SDS011;54456;48.436;10.028;2023-06-10T12:13:36;9.00;;;5.65;;
67675;SDS011;54456;48.436;10.028;2023-06-10T12:15:06;10.02;;;5.90;;
67675;SDS011;54456;48.436;10.028;2023-06-10T12:16:37;9.52;;;5.70;;
67675;SDS011;54456;48.436;10.028;2023-06-10T12:18:08;8.95;;;5.57;;
67675;SDS011;54456;48.436;10.028;2023-06-10T12:19:38;8.50;;;5.55;;
67675;SDS011;54456;48.436;10.028;2023-06-10T12:21:23;9.10;;;5.40;;
67675;SDS011;54456;48.436;10.028;2023-06-10T12:22:54;9.02;;;5.88;;
67675;SDS011;54456;48.436;10.028;2023-06-10T12:24:24;8.25;;;5.63;;